Time;durP1;ratioP1;P1;durP2;ratioP2;P2;SDS_P1;SDS_P2;PMS_P1;PMS_P2;Temp;Humidity;BMP_temperature;BMP_pressure;BME280_temperature;BME280_humidity;BME280_pressure;Samples;Min_cycle;Max_cycle;Signal;HPM_P1;HPM_P2
2023/02/17 00:01:23;;;;;;;5.07;4.78;;;3.00;99.30;;;;;;6064078;23;20754;-78
2023/02/17 00:03:52;;;;;;;4.88;4.57;;;3.10;99.80;;;;;;6063931;23;20410;-78
2023/02/17 00:06:23;;;;;;;4.60;4.30;;;3.00;99.90;;;;;;6064455;23;20398;-79
2023/02/17 00:08:50;;;;;;;4.82;4.53;;;3.00;99.90;;;;;;6062814;23;20450;-77
2023/02/17 00:11:17;;;;;;;5.15;4.72;;;3.00;99.90;;;;;;6063180;23;20443;-78
2023/02/17 00:13:45;;;;;;;4.80;4.50;;;2.90;99.90;;;;;;6063796;23;20704;-78
2023/02/17 00:16:19;;;;;;;4.87;4.53;;;2.90;99.90;;;;;;6062195;23;20379;-78
2023/02/17 00:18:47;;;;;;;4.90;4.60;;;2.90;99.90;;;;;;6063375;23;20474;-79
2023/02/17 00:21:15;;;;;;;5.18;4.88;;;3.00;99.90;;;;;;6061299;23;20708;-78
2023/02/17 00:23:43;;;;;;;4.97;4.65;;;2.90;99.90;;;;;;6063575;23;20429;-78
2023/02/17 00:26:12;;;;;;;4.82;4.53;;;2.80;99.90;;;;;;6063279;23;20695;-79
2023/02/17 00:28:39;;;;;;;5.28;4.88;;;2.70;99.90;;;;;;6062835;23;20452;-79
2023/02/17 00:31:16;;;;;;;4.22;4.03;;;2.70;99.90;;;;;;6061843;23;20390;-79
2023/02/17 00:33:43;;;;;;;4.65;4.35;;;2.60;99.90;;;;;;6062905;23;20435;-78
2023/02/17 00:36:16;;;;;;;4.78;4.47;;;2.70;99.90;;;;;;6062297;23;20379;-78
2023/02/17 00:38:44;;;;;;;4.97;4.57;;;2.70;99.90;;;;;;6062112;23;20489;-78
2023/02/17 00:41:11;;;;;;;4.80;4.50;;;2.70;99.90;;;;;;6063354;23;20712;-78
2023/02/17 00:43:37;;;;;;;5.25;4.95;;;2.70;99.90;;;;;;6063099;23;20391;-78
2023/02/17 00:46:05;;;;;;;5.70;5.40;;;2.70;99.90;;;;;;6062439;23;20748;-78
2023/02/17 00:48:32;;;;;;;5.10;4.80;;;2.70;99.90;;;;;;6062526;23;20394;-78
2023/02/17 00:50:59;;;;;;;4.60;4.30;;;2.70;99.90;;;;;;6062430;23;20378;-78
2023/02/17 00:53:27;;;;;;;4.55;4.28;;;2.70;99.90;;;;;;6064745;23;20411;-80
2023/02/17 00:55:54;;;;;;;5.00;4.70;;;2.60;99.90;;;;;;6062391;23;20406;-77
2023/02/17 00:58:21;;;;;;;4.95;4.65;;;2.60;99.90;;;;;;6064361;23;20462;-79
2023/02/17 01:00:48;;;;;;;4.50;4.30;;;2.60;99.90;;;;;;6063002;23;20759;-79
2023/02/17 01:03:16;;;;;;;4.85;4.55;;;2.50;99.90;;;;;;6062141;23;20371;-80
2023/02/17 01:05:46;;;;;;;5.40;5.00;;;2.50;99.90;;;;;;6062903;23;20747;-78
2023/02/17 01:08:14;;;;;;;5.00;4.70;;;2.40;99.90;;;;;;6062265;23;20450;-79
2023/02/17 01:10:42;;;;;;;5.25;4.90;;;2.40;99.90;;;;;;6063178;23;20445;-78
2023/02/17 01:13:11;;;;;;;5.38;5.07;;;2.40;99.90;;;;;;6062044;23;20803;-79
2023/02/17 01:15:43;;;;;;;5.60;5.20;;;2.30;99.90;;;;;;6063289;23;20708;-79
2023/02/17 01:18:11;;;;;;;5.10;4.75;;;2.20;99.90;;;;;;6063431;23;20789;-79
2023/02/17 01:20:38;;;;;;;5.07;4.78;;;2.10;99.90;;;;;;6062871;23;20413;-78
2023/02/17 01:23:07;;;;;;;5.07;4.78;;;2.10;99.90;;;;;;6064019;23;20374;-79
2023/02/17 01:25:39;;;;;;;5.05;4.75;;;2.10;99.90;;;;;;6062757;23;20425;-78
2023/02/17 01:28:07;;;;;;;5.00;4.70;;;2.10;99.90;;;;;;6062238;23;20430;-78
2023/02/17 01:30:34;;;;;;;5.25;4.95;;;2.10;99.90;;;;;;6064226;23;20883;-79
2023/02/17 01:33:01;;;;;;;5.03;4.72;;;2.10;99.90;;;;;;6062377;23;20383;-80
2023/02/17 01:35:28;;;;;;;4.80;4.50;;;2.00;99.90;;;;;;6064125;23;20458;-79
2023/02/17 01:37:55;;;;;;;5.28;4.97;;;2.00;99.90;;;;;;6062722;23;20863;-78
2023/02/17 01:40:22;;;;;;;5.03;4.72;;;2.00;99.90;;;;;;6064218;23;20387;-79
2023/02/17 01:42:49;;;;;;;4.70;4.40;;;2.00;99.90;;;;;;6064811;23;20421;-78
2023/02/17 01:45:16;;;;;;;4.65;4.35;;;1.90;99.90;;;;;;6063061;23;20709;-78
2023/02/17 01:47:58;;;;;;;4.97;4.67;;;1.90;99.90;;;;;;6064811;23;20580;-79
2023/02/17 01:50:34;;;;;;;4.80;4.50;;;1.80;99.90;;;;;;6063939;23;20466;-80
2023/02/17 01:53:03;;;;;;;5.05;4.75;;;1.80;99.90;;;;;;6063831;23;20404;-80
2023/02/17 01:55:31;;;;;;;5.10;4.80;;;1.80;99.90;;;;;;6064078;23;20430;-78
2023/02/17 01:58:02;;;;;;;5.00;4.70;;;1.80;99.90;;;;;;6066095;23;20430;-79
2023/02/17 02:00:31;;;;;;;5.30;5.00;;;1.70;99.90;;;;;;6064850;23;20417;-75
2023/02/17 02:02:59;;;;;;;5.43;5.13;;;1.70;99.90;;;;;;6073505;23;20447;-75
2023/02/17 02:05:27;;;;;;;5.22;4.93;;;1.60;99.90;;;;;;6092872;23;20434;-75
2023/02/17 02:07:54;;;;;;;5.70;5.30;;;1.70;99.90;;;;;;6090921;23;20823;-75
2023/02/17 02:10:21;;;;;;;4.68;4.47;;;1.70;99.90;;;;;;6092681;23;20389;-75
2023/02/17 02:12:48;;;;;;;5.22;4.93;;;1.70;99.90;;;;;;6094050;23;20381;-75
2023/02/17 02:15:19;;;;;;;5.57;5.17;;;1.70;99.90;;;;;;6092093;23;20420;-75
2023/02/17 02:18:15;;;;;;;5.10;4.80;;;1.70;99.90;;;;;;6093152;23;20556;-75
2023/02/17 02:21:06;;;;;;;4.63;4.32;;;1.70;99.90;;;;;;6093425;23;20381;-75
2023/02/17 02:23:36;;;;;;;4.90;4.60;;;1.70;99.90;;;;;;6091514;23;20477;-75
2023/02/17 02:26:40;;;;;;;4.88;4.57;;;1.70;99.90;;;;;;6092796;23;20405;-75
2023/02/17 02:29:38;;;;;;;4.82;4.53;;;1.70;99.90;;;;;;6080054;23;20469;-75
2023/02/17 02:32:23;;;;;;;4.90;4.60;;;1.60;99.90;;;;;;6091623;23;20681;-75
2023/02/17 02:34:58;;;;;;;4.32;4.03;;;1.60;99.90;;;;;;6093313;23;20466;-75
2023/02/17 02:37:42;;;;;;;4.40;4.18;;;1.60;99.90;;;;;;6090833;23;20445;-75
2023/02/17 02:40:11;;;;;;;4.65;4.35;;;1.40;99.90;;;;;;6092841;23;20442;-75
2023/02/17 02:42:39;;;;;;;4.35;4.15;;;1.40;99.90;;;;;;6090804;23;20407;-75
2023/02/17 02:45:10;;;;;;;4.68;4.43;;;1.40;99.90;;;;;;6091114;23;20416;-75
2023/02/17 02:47:45;;;;;;;4.63;4.32;;;1.40;99.90;;;;;;6092046;23;20386;-75
2023/02/17 02:50:34;;;;;;;4.93;4.63;;;1.30;99.90;;;;;;6092623;23;20484;-75
2023/02/17 02:53:09;;;;;;;4.90;4.60;;;1.30;99.90;;;;;;6090816;23;20447;-75
2023/02/17 02:55:56;;;;;;;5.10;4.80;;;1.30;99.90;;;;;;6092190;23;20442;-75
2023/02/17 02:58:35;;;;;;;5.40;5.00;;;1.10;99.90;;;;;;6073997;23;20437;-75
2023/02/17 03:01:29;;;;;;;5.83;5.43;;;1.10;99.90;;;;;;6092256;23;20546;-75
2023/02/17 03:04:30;;;;;;;5.25;4.95;;;0.90;99.90;;;;;;6090797;23;20382;-75
2023/02/17 03:07:23;;;;;;;4.50;4.20;;;0.90;99.90;;;;;;6066524;23;20377;-75
2023/02/17 03:09:56;;;;;;;4.57;4.28;;;0.90;99.90;;;;;;6060687;23;20853;-75
2023/02/17 03:12:24;;;;;;;4.82;4.50;;;0.90;99.90;;;;;;6093207;23;20472;-75
2023/02/17 03:15:01;;;;;;;4.97;4.68;;;0.90;99.90;;;;;;6066318;23;20411;-75
2023/02/17 03:17:32;;;;;;;4.53;4.22;;;1.00;99.90;;;;;;6067776;23;20397;-76
2023/02/17 03:20:02;;;;;;;4.53;4.22;;;1.00;99.90;;;;;;6092230;23;20423;-75
2023/02/17 03:22:35;;;;;;;4.50;4.30;;;1.10;99.90;;;;;;6093070;23;20381;-75
2023/02/17 03:25:03;;;;;;;4.95;4.65;;;1.10;99.90;;;;;;6067236;23;20366;-76
2023/02/17 03:27:29;;;;;;;4.55;4.25;;;1.10;99.90;;;;;;6067738;23;20408;-75
2023/02/17 03:29:56;;;;;;;4.33;4.10;;;1.10;99.90;;;;;;6066518;23;20449;-75
2023/02/17 03:32:24;;;;;;;4.68;4.38;;;1.10;99.90;;;;;;6067632;23;20377;-75
2023/02/17 03:34:50;;;;;;;4.90;4.60;;;1.00;99.90;;;;;;6068115;23;20370;-79
2023/02/17 03:37:18;;;;;;;5.25;4.95;;;1.00;99.90;;;;;;6068479;23;20436;-79
2023/02/17 03:39:45;;;;;;;4.68;4.38;;;1.00;99.90;;;;;;6067705;23;20409;-79
2023/02/17 03:42:11;;;;;;;4.78;4.47;;;1.00;99.90;;;;;;6068191;23;20473;-79
2023/02/17 03:44:38;;;;;;;5.30;4.90;;;0.80;99.90;;;;;;6068248;23;20377;-79
2023/02/17 03:47:06;;;;;;;4.95;4.65;;;0.80;99.90;;;;;;6067659;23;20446;-79
2023/02/17 03:49:32;;;;;;;5.13;4.82;;;0.70;99.90;;;;;;6068289;23;20443;-80
2023/02/17 03:51:59;;;;;;;4.60;4.30;;;0.60;99.90;;;;;;6067587;23;20385;-80
2023/02/17 03:54:26;;;;;;;4.85;4.55;;;0.60;99.90;;;;;;6093699;23;20764;-79
2023/02/17 03:56:53;;;;;;;4.47;4.18;;;0.60;99.90;;;;;;6067709;23;20370;-79
2023/02/17 03:59:20;;;;;;;4.60;4.30;;;0.60;99.90;;;;;;6093622;23;20397;-79
2023/02/17 04:01:47;;;;;;;4.20;4.00;;;0.60;99.90;;;;;;6092288;23;20453;-79
2023/02/17 04:04:14;;;;;;;4.70;4.40;;;0.70;99.90;;;;;;6068140;23;20405;-80
2023/02/17 04:06:41;;;;;;;4.32;4.10;;;0.70;99.90;;;;;;6068244;23;20389;-79
2023/02/17 04:09:08;;;;;;;4.75;4.45;;;0.60;99.90;;;;;;6092842;23;20377;-80
2023/02/17 04:11:35;;;;;;;4.75;4.45;;;0.70;99.90;;;;;;6068160;23;20449;-79
2023/02/17 04:14:02;;;;;;;4.75;4.45;;;0.60;99.90;;;;;;6067940;23;20404;-79
2023/02/17 04:16:29;;;;;;;4.65;4.35;;;0.60;99.90;;;;;;6068560;23;20652;-79
2023/02/17 04:18:55;;;;;;;4.53;4.23;;;0.70;99.90;;;;;;6067390;23;20378;-79
2023/02/17 04:21:22;;;;;;;4.60;4.30;;;0.60;99.90;;;;;;6067974;23;20456;-79
2023/02/17 04:23:49;;;;;;;4.20;4.00;;;0.40;99.90;;;;;;6092546;23;20401;-79
2023/02/17 04:26:16;;;;;;;4.88;4.57;;;0.40;99.90;;;;;;6067760;23;20401;-79
2023/02/17 04:28:43;;;;;;;4.50;4.20;;;0.40;99.90;;;;;;6068126;23;20436;-79
2023/02/17 04:31:10;;;;;;;4.30;4.00;;;0.40;99.90;;;;;;6067283;23;20706;-79
2023/02/17 04:33:37;;;;;;;4.32;4.13;;;0.40;99.90;;;;;;6093207;23;20377;-80
2023/02/17 04:36:04;;;;;;;4.83;4.53;;;0.40;99.90;;;;;;6092099;23;20868;-80
2023/02/17 04:38:32;;;;;;;4.80;4.40;;;0.40;99.90;;;;;;6068355;23;20457;-79
2023/02/17 04:41:00;;;;;;;4.68;4.38;;;0.40;99.90;;;;;;6092320;23;20480;-80
2023/02/17 04:43:28;;;;;;;4.78;4.47;;;0.30;99.90;;;;;;6067800;23;20401;-80
2023/02/17 04:45:55;;;;;;;4.72;4.43;;;0.30;99.90;;;;;;6067024;23;20418;-80
2023/02/17 04:48:23;;;;;;;5.32;4.93;;;0.20;99.90;;;;;;6093406;23;20381;-80
2023/02/17 04:50:50;;;;;;;4.88;4.57;;;0.00;99.90;;;;;;6066762;23;20415;-80
2023/02/17 04:53:17;;;;;;;4.80;4.50;;;-0.10;99.90;;;;;;6068289;23;20381;-80
2023/02/17 04:55:48;;;;;;;5.13;4.78;;;-0.10;99.90;;;;;;6067909;23;20461;-80
2023/02/17 04:58:15;;;;;;;5.30;4.90;;;-0.10;99.90;;;;;;6067154;23;20386;-80
2023/02/17 05:00:42;;;;;;;5.20;4.90;;;0.00;99.90;;;;;;6068398;23;20413;-80
2023/02/17 05:03:09;;;;;;;5.00;4.70;;;0.00;99.90;;;;;;6066739;23;20397;-79
2023/02/17 05:05:36;;;;;;;5.07;4.78;;;0.10;99.90;;;;;;6068053;23;20480;-80
2023/02/17 05:08:03;;;;;;;5.00;4.65;;;0.10;99.90;;;;;;6067088;23;20433;-80
2023/02/17 05:10:30;;;;;;;4.63;4.33;;;0.20;99.90;;;;;;6093001;23;20385;-79
2023/02/17 05:12:57;;;;;;;5.00;4.70;;;0.20;99.90;;;;;;6067195;23;20453;-79
2023/02/17 05:15:24;;;;;;;4.70;4.40;;;0.30;99.90;;;;;;6070030;23;20369;-80
2023/02/17 05:17:51;;;;;;;4.78;4.47;;;0.30;99.90;;;;;;6069464;23;20464;-80
2023/02/17 05:20:18;;;;;;;4.25;4.05;;;0.30;99.90;;;;;;6069348;23;20448;-80
2023/02/17 05:22:45;;;;;;;5.20;4.80;;;0.30;99.90;;;;;;6070008;23;20432;-80
2023/02/17 05:25:12;;;;;;;5.03;4.72;;;0.40;99.90;;;;;;6068999;23;20746;-80
2023/02/17 05:27:39;;;;;;;5.00;4.68;;;0.40;99.90;;;;;;6094903;23;20456;-80
2023/02/17 05:30:06;;;;;;;4.85;4.55;;;0.40;99.90;;;;;;6068949;23;20385;-80
2023/02/17 05:32:33;;;;;;;4.82;4.45;;;0.40;99.90;;;;;;6069185;23;20399;-80
2023/02/17 05:35:00;;;;;;;4.72;4.43;;;0.10;99.90;;;;;;6094044;23;20798;-79
2023/02/17 05:37:27;;;;;;;4.90;4.50;;;-0.10;99.90;;;;;;6094095;23;20700;-79
2023/02/17 05:39:54;;;;;;;4.20;4.00;;;-0.20;99.90;;;;;;6069782;23;20854;-81
2023/02/17 05:42:21;;;;;;;5.55;4.10;;;-0.20;99.90;;;;;;6068918;23;20754;-79
2023/02/17 05:44:48;;;;;;;4.70;4.40;;;-0.20;99.90;;;;;;6070025;23;20691;-79
2023/02/17 05:47:14;;;;;;;4.90;4.50;;;-0.30;99.90;;;;;;6068011;23;20385;-79
2023/02/17 05:49:41;;;;;;;4.90;4.50;;;-0.20;99.90;;;;;;6069637;23;20417;-80
2023/02/17 05:52:08;;;;;;;4.22;3.92;;;-0.20;99.90;;;;;;6068322;23;20428;-79
2023/02/17 05:54:35;;;;;;;4.25;3.95;;;-0.20;99.90;;;;;;6069519;23;20377;-80
2023/02/17 05:57:02;;;;;;;4.07;3.85;;;-0.20;99.90;;;;;;6093596;23;20373;-79
2023/02/17 05:59:29;;;;;;;4.20;3.90;;;-0.20;99.90;;;;;;6094338;23;20374;-80
2023/02/17 06:01:55;;;;;;;4.20;3.90;;;-0.20;99.90;;;;;;6068927;23;20512;-79
2023/02/17 06:04:22;;;;;;;4.30;4.00;;;-0.10;99.90;;;;;;6068786;23;20369;-80
2023/02/17 06:06:50;;;;;;;4.20;3.90;;;-0.10;99.90;;;;;;6094308;23;20386;-80
2023/02/17 06:09:17;;;;;;;4.40;4.10;;;0.00;99.90;;;;;;6093587;23;20413;-79
2023/02/17 06:11:43;;;;;;;3.90;3.70;;;-0.10;99.90;;;;;;6094182;23;20754;-79
2023/02/17 06:14:10;;;;;;;4.47;4.18;;;-0.10;99.90;;;;;;6093717;23;20750;-79
2023/02/17 06:16:37;;;;;;;4.40;4.10;;;-0.10;99.90;;;;;;6069221;23;20388;-80
2023/02/17 06:19:04;;;;;;;4.43;4.20;;;-0.10;99.90;;;;;;6093309;23;20406;-79
2023/02/17 06:21:31;;;;;;;4.05;3.78;;;-0.20;99.90;;;;;;6093947;23;20381;-79
2023/02/17 06:23:58;;;;;;;4.97;4.57;;;-0.20;99.90;;;;;;6068970;23;20377;-79
2023/02/17 06:26:25;;;;;;;5.13;4.72;;;-0.20;99.90;;;;;;6068445;23;20441;-79
2023/02/17 06:28:52;;;;;;;4.70;4.40;;;-0.20;99.90;;;;;;6094370;23;20440;-80
2023/02/17 06:31:19;;;;;;;4.35;4.15;;;-0.20;99.90;;;;;;6068227;23;20381;-80
2023/02/17 06:33:46;;;;;;;4.82;4.53;;;-0.20;99.90;;;;;;6069153;23;20380;-79
2023/02/17 06:36:13;;;;;;;4.60;4.30;;;-0.10;99.90;;;;;;6068249;23;20424;-80
2023/02/17 06:38:40;;;;;;;4.60;4.30;;;-0.10;99.90;;;;;;6094451;23;20377;-79
2023/02/17 06:41:07;;;;;;;4.38;4.07;;;-0.10;99.90;;;;;;6068545;23;20381;-79
2023/02/17 06:43:34;;;;;;;4.03;3.83;;;-0.10;99.90;;;;;;6068568;23;20397;-79
2023/02/17 06:46:01;;;;;;;4.28;3.97;;;-0.10;99.90;;;;;;6093939;23;20481;-79
2023/02/17 06:48:31;;;;;;;4.20;4.00;;;-0.10;99.90;;;;;;6092177;23;20506;-79
2023/02/17 06:50:59;;;;;;;4.82;4.43;;;-0.10;99.90;;;;;;6093646;23;20456;-79
2023/02/17 06:53:26;;;;;;;4.28;3.97;;;-0.10;99.90;;;;;;6067934;23;20381;-81
2023/02/17 06:55:53;;;;;;;4.60;4.32;;;-0.10;99.90;;;;;;6094242;23;20377;-80
2023/02/17 06:58:20;;;;;;;4.28;3.97;;;-0.10;99.90;;;;;;6092940;23;20705;-79
2023/02/17 07:00:48;;;;;;;4.20;4.00;;;0.00;99.90;;;;;;6094368;23;20382;-80
2023/02/17 07:03:14;;;;;;;3.95;3.75;;;0.00;99.90;;;;;;6067699;23;20401;-80
2023/02/17 07:05:42;;;;;;;4.55;4.22;;;0.10;99.90;;;;;;6068941;23;20412;-79
2023/02/17 07:08:08;;;;;;;4.15;3.95;;;0.10;99.90;;;;;;6067463;23;20374;-79
2023/02/17 07:10:36;;;;;;;4.53;4.23;;;0.10;99.90;;;;;;6093074;23;20433;-80
2023/02/17 07:13:03;;;;;;;4.70;4.40;;;0.20;99.90;;;;;;6067418;23;20385;-82
2023/02/17 07:15:30;;;;;;;4.82;4.53;;;0.10;99.90;;;;;;6067254;23;20405;-80
2023/02/17 07:17:57;;;;;;;4.68;4.38;;;0.20;99.90;;;;;;6093142;23;20460;-79
2023/02/17 07:20:24;;;;;;;4.57;4.38;;;0.30;99.90;;;;;;6066994;23;20753;-78
2023/02/17 07:22:51;;;;;;;4.88;4.57;;;0.30;99.90;;;;;;6068763;23;20396;-80
2023/02/17 07:25:18;;;;;;;4.18;3.97;;;0.40;99.90;;;;;;6092432;23;20464;-80
2023/02/17 07:27:45;;;;;;;5.03;4.72;;;0.50;99.90;;;;;;6068200;23;20703;-81
2023/02/17 07:30:13;;;;;;;4.10;3.90;;;0.60;99.90;;;;;;6044300;23;20940;-81
2023/02/17 07:32:40;;;;;;;4.63;4.32;;;0.80;99.90;;;;;;6068083;23;20388;-80
2023/02/17 07:35:07;;;;;;;4.32;4.13;;;0.90;99.90;;;;;;6068494;23;20967;-80
2023/02/17 07:37:34;;;;;;;4.50;4.20;;;1.00;99.90;;;;;;6092025;23;20417;-80
2023/02/17 07:40:01;;;;;;;4.85;4.55;;;1.10;99.90;;;;;;6068542;23;20400;-81
2023/02/17 07:42:28;;;;;;;4.82;4.53;;;1.30;99.90;;;;;;6067321;23;20849;-81
2023/02/17 07:44:55;;;;;;;5.13;4.75;;;1.60;99.90;;;;;;6068741;23;20381;-80
2023/02/17 07:47:22;;;;;;;5.20;4.90;;;1.80;99.90;;;;;;6067672;23;20373;-79
2023/02/17 07:49:49;;;;;;;5.40;5.00;;;2.00;99.90;;;;;;6068908;23;20750;-80
2023/02/17 07:52:17;;;;;;;5.38;5.07;;;2.30;99.90;;;;;;6067299;23;20373;-79
2023/02/17 07:54:44;;;;;;;6.10;5.70;;;2.50;99.90;;;;;;6068517;23;20420;-80
2023/02/17 07:57:11;;;;;;;6.43;6.03;;;2.70;99.90;;;;;;6068358;23;20782;-80
2023/02/17 07:59:38;;;;;;;6.00;5.70;;;3.00;99.90;;;;;;6067809;23;20424;-79
2023/02/17 08:02:05;;;;;;;5.18;4.80;;;3.20;99.90;;;;;;6068086;23;20784;-80
2023/02/17 08:04:32;;;;;;;4.47;4.28;;;3.40;99.90;;;;;;6066974;23;20739;-79
2023/02/17 08:06:59;;;;;;;5.13;4.82;;;3.70;99.90;;;;;;6067888;23;20374;-79
2023/02/17 08:15:03;;;;;;;4.15;3.95;;;4.30;99.90;;;;;;6092664;23;21311;-80
2023/02/17 08:17:30;;;;;;;4.43;4.20;;;4.50;99.90;;;;;;6067899;23;20389;-80
2023/02/17 08:19:57;;;;;;;3.95;3.75;;;4.70;99.90;;;;;;6092593;23;20388;-80
2023/02/17 08:22:29;;;;;;;3.55;3.35;;;4.90;99.90;;;;;;6092853;23;20377;-80
2023/02/17 08:24:56;;;;;;;3.60;3.40;;;5.00;99.90;;;;;;6092343;23;20393;-80
2023/02/17 08:27:23;;;;;;;3.72;3.53;;;5.10;99.90;;;;;;6067931;23;20378;-79
2023/02/17 08:29:50;;;;;;;3.78;3.47;;;5.30;99.90;;;;;;6067807;23;20388;-80
2023/02/17 08:32:17;;;;;;;3.47;3.28;;;5.50;99.90;;;;;;6067749;23;20381;-80
2023/02/17 08:34:44;;;;;;;3.40;3.20;;;5.80;99.00;;;;;;6067733;23;20734;-79
2023/02/17 08:37:11;;;;;;;3.58;3.38;;;5.90;94.00;;;;;;6068176;23;20683;-80
2023/02/17 08:39:38;;;;;;;3.77;3.57;;;6.00;91.80;;;;;;6092968;23;20381;-80
2023/02/17 08:42:05;;;;;;;3.58;3.38;;;6.10;93.00;;;;;;6066535;23;20381;-80
2023/02/17 08:44:35;;;;;;;3.53;3.33;;;6.30;93.20;;;;;;6067502;23;20473;-80
2023/02/17 08:47:03;;;;;;;3.60;3.40;;;6.50;92.10;;;;;;6092050;23;20842;-79
2023/02/17 08:49:31;;;;;;;3.58;3.38;;;6.70;88.50;;;;;;6093584;23;20383;-79
2023/02/17 08:51:58;;;;;;;3.33;3.13;;;7.00;86.10;;;;;;6067057;23;20389;-80
2023/02/17 08:54:26;;;;;;;3.22;3.05;;;7.00;82.70;;;;;;6068430;23;20381;-80
2023/02/17 08:56:52;;;;;;;3.47;3.17;;;7.20;83.50;;;;;;6092186;23;20437;-80
2023/02/17 08:59:19;;;;;;;3.60;3.40;;;7.40;82.00;;;;;;6092929;23;20380;-79
2023/02/17 09:01:46;;;;;;;3.40;3.20;;;7.60;79.00;;;;;;6066259;23;20377;-79
2023/02/17 09:04:14;;;;;;;3.33;3.13;;;7.80;77.90;;;;;;6067425;23;20710;-79
2023/02/17 09:06:50;;;;;;;2.90;2.80;;;8.10;74.90;;;;;;6068290;23;20377;-79
2023/02/17 09:09:21;;;;;;;2.97;2.78;;;8.30;72.80;;;;;;6067151;23;20385;-80
2023/02/17 09:11:48;;;;;;;2.95;2.75;;;8.50;70.30;;;;;;6068178;23;20420;-80
2023/02/17 09:14:15;;;;;;;2.97;2.78;;;8.70;68.20;;;;;;6090611;23;20838;-80
2023/02/17 09:16:42;;;;;;;3.20;3.00;;;8.80;65.50;;;;;;6066301;23;20381;-80
2023/02/17 09:19:09;;;;;;;3.50;3.20;;;8.90;64.00;;;;;;6091129;23;20707;-80
2023/02/17 09:21:36;;;;;;;3.38;3.17;;;9.00;64.80;;;;;;6065897;23;20385;-80
2023/02/17 09:24:03;;;;;;;3.25;3.00;;;9.10;63.00;;;;;;6066409;23;20381;-81
2023/02/17 09:26:30;;;;;;;3.30;3.00;;;9.30;63.30;;;;;;6067422;23;20747;-80
2023/02/17 09:28:57;;;;;;;3.20;3.00;;;9.40;60.30;;;;;;6066876;23;20373;-79
2023/02/17 09:31:25;;;;;;;3.05;2.85;;;9.50;60.80;;;;;;6092472;23;20881;-80
2023/02/17 09:33:53;;;;;;;2.70;2.60;;;9.70;60.70;;;;;;6092411;23;20861;-79
2023/02/17 09:36:25;;;;;;;2.58;2.38;;;9.80;58.10;;;;;;6066514;23;20393;-81
2023/02/17 09:38:53;;;;;;;2.50;2.38;;;10.00;57.50;;;;;;6092117;23;20381;-80
2023/02/17 09:41:46;;;;;;;2.70;2.50;;;10.10;57.60;;;;;;6091249;23;20377;-80
2023/02/17 09:44:23;;;;;;;2.67;2.03;;;10.20;55.70;;;;;;6091262;23;20733;-81
2023/02/17 09:47:00;;;;;;;2.27;2.17;;;10.40;54.20;;;;;;6067197;23;20477;-80
2023/02/17 09:49:43;;;;;;;2.45;2.35;;;10.40;54.60;;;;;;6092729;23;20373;-80
2023/02/17 09:52:22;;;;;;;2.50;2.40;;;10.60;55.90;;;;;;6066711;23;20389;-80
2023/02/17 09:55:09;;;;;;;2.25;2.15;;;10.70;54.80;;;;;;6067685;23;20440;-80
2023/02/17 09:57:43;;;;;;;2.58;2.45;;;10.90;56.70;;;;;;6066662;23;21206;-80
2023/02/17 10:00:16;;;;;;;2.85;2.45;;;11.00;55.80;;;;;;6093973;23;20381;-80
2023/02/17 10:02:55;;;;;;;3.22;3.03;;;11.20;57.00;;;;;;6092394;23;20408;-80
2023/02/17 10:05:27;;;;;;;3.10;2.90;;;11.40;59.70;;;;;;6067804;23;20795;-79
2023/02/17 10:08:06;;;;;;;3.35;3.15;;;11.50;60.80;;;;;;6068777;23;20381;-79
2023/02/17 10:11:02;;;;;;;3.22;3.03;;;11.50;62.20;;;;;;6067394;23;20401;-80
2023/02/17 10:13:33;;;;;;;3.38;3.17;;;11.50;63.40;;;;;;6092390;23;20401;-79
2023/02/17 10:16:05;;;;;;;2.83;2.72;;;11.40;64.20;;;;;;6093542;23;20373;-79
2023/02/17 10:18:48;;;;;;;2.92;2.83;;;11.50;68.60;;;;;;6067110;23;20373;-79
2023/02/17 10:21:24;;;;;;;2.90;2.70;;;11.50;70.80;;;;;;6092628;23;20457;-79
2023/02/17 10:23:51;;;;;;;3.07;2.87;;;11.70;69.10;;;;;;6090207;23;20977;-79
2023/02/17 10:26:38;;;;;;;2.63;2.53;;;11.80;69.40;;;;;;6067531;23;20385;-79
2023/02/17 10:29:13;;;;;;;2.60;2.50;;;12.00;68.40;;;;;;6066438;23;20709;-79
2023/02/17 10:32:00;;;;;;;2.50;2.35;;;12.00;66.00;;;;;;6093014;23;20381;-79
2023/02/17 10:34:35;;;;;;;2.50;2.40;;;12.20;67.00;;;;;;6092208;23;20829;-79
2023/02/17 10:37:22;;;;;;;2.70;2.60;;;12.20;65.60;;;;;;6092676;23;20441;-79
2023/02/17 10:39:52;;;;;;;2.63;2.47;;;12.30;64.80;;;;;;6092014;23;20396;-79
2023/02/17 10:42:20;;;;;;;2.80;2.70;;;12.40;64.80;;;;;;6067611;23;20441;-80
2023/02/17 10:44:49;;;;;;;2.33;2.13;;;12.50;63.90;;;;;;6092672;23;20768;-79
2023/02/17 10:47:18;;;;;;;2.60;2.50;;;12.60;62.40;;;;;;6068054;23;20462;-78
2023/02/17 10:49:52;;;;;;;2.50;2.40;;;12.50;62.30;;;;;;6092354;23;20845;-78
2023/02/17 10:52:29;;;;;;;2.70;2.60;;;12.60;60.50;;;;;;6067745;23;20381;-78
2023/02/17 10:55:02;;;;;;;2.35;2.25;;;12.40;60.80;;;;;;6091944;23;20476;-78
2023/02/17 10:57:52;;;;;;;2.58;2.38;;;12.30;60.00;;;;;;6091863;23;20376;-78
2023/02/17 11:00:20;;;;;;;2.50;2.40;;;12.60;58.10;;;;;;6092415;23;20487;-79
2023/02/17 11:02:49;;;;;;;2.70;2.60;;;12.60;59.30;;;;;;6067143;23;20432;-79
2023/02/17 11:05:28;;;;;;;2.63;2.53;;;12.80;58.10;;;;;;6067986;23;20377;-79
2023/02/17 11:08:05;;;;;;;2.72;2.63;;;13.00;57.40;;;;;;6067465;23;20702;-79
2023/02/17 11:10:36;;;;;;;2.70;2.60;;;12.90;56.90;;;;;;6067869;23;20452;-79
2023/02/17 11:13:18;;;;;;;2.70;2.58;;;13.00;58.10;;;;;;6067425;23;20452;-79
2023/02/17 11:15:46;;;;;;;2.95;2.75;;;13.30;56.80;;;;;;6067500;23;20392;-80
2023/02/17 11:18:20;;;;;;;3.00;2.80;;;13.50;53.80;;;;;;6066961;23;20385;-78
2023/02/17 11:20:47;;;;;;;2.67;2.58;;;13.50;54.20;;;;;;6066045;23;20384;-79
2023/02/17 11:23:14;;;;;;;2.90;2.70;;;13.60;55.40;;;;;;6091193;23;20378;-78
2023/02/17 11:25:42;;;;;;;3.13;2.92;;;13.70;54.00;;;;;;6067071;23;20378;-79
2023/02/17 11:28:12;;;;;;;2.92;2.83;;;13.80;55.60;;;;;;6066805;23;20867;-79
2023/02/17 11:30:49;;;;;;;3.50;3.30;;;13.90;54.00;;;;;;6065444;23;20832;-79
2023/02/17 11:33:27;;;;;;;3.25;3.05;;;14.10;54.20;;;;;;6091031;23;20401;-79
2023/02/17 11:35:55;;;;;;;2.90;2.70;;;14.10;52.50;;;;;;6064471;23;20397;-78
2023/02/17 11:38:43;;;;;;;2.88;2.78;;;14.20;52.80;;;;;;6090513;23;20458;-78
2023/02/17 11:41:10;;;;;;;3.45;3.25;;;14.20;53.10;;;;;;6065227;23;20377;-78
2023/02/17 11:43:49;;;;;;;3.45;3.25;;;14.40;53.00;;;;;;6090437;23;20710;-79
2023/02/17 11:46:24;;;;;;;2.95;2.85;;;14.30;53.20;;;;;;6065273;23;20397;-78
2023/02/17 11:49:08;;;;;;;3.22;3.03;;;14.30;52.90;;;;;;6066800;23;20374;-79
2023/02/17 11:52:00;;;;;;;3.35;3.15;;;14.30;52.40;;;;;;6091145;23;20755;-78
2023/02/17 11:54:42;;;;;;;2.80;2.70;;;14.20;53.90;;;;;;6065197;23;20729;-79
2023/02/17 11:57:36;;;;;;;3.20;3.00;;;14.40;54.40;;;;;;6091425;23;20412;-78
2023/02/17 12:00:31;;;;;;;3.10;2.90;;;14.70;53.40;;;;;;6065386;23;20366;-78
2023/02/17 12:03:19;;;;;;;3.03;2.92;;;14.60;52.60;;;;;;6090055;23;20456;-79
2023/02/17 12:05:59;;;;;;;3.13;2.92;;;14.60;52.20;;;;;;6090276;23;20416;-78
2023/02/17 12:08:59;;;;;;;2.85;2.72;;;14.70;52.40;;;;;;6090671;23;20439;-78
2023/02/17 12:11:35;;;;;;;3.47;3.30;;;15.00;51.80;;;;;;6091978;23;20396;-79
2023/02/17 12:14:33;;;;;;;3.03;2.83;;;15.00;51.90;;;;;;6091454;23;20806;-78
2023/02/17 12:17:00;;;;;;;2.55;2.45;;;14.80;51.90;;;;;;6067240;23;20388;-78
2023/02/17 12:19:30;;;;;;;3.10;2.90;;;15.10;51.70;;;;;;6066806;23;20456;-78
2023/02/17 12:22:17;;;;;;;2.97;2.78;;;15.30;51.30;;;;;;6067054;23;20451;-78
2023/02/17 12:24:59;;;;;;;3.00;2.90;;;15.50;49.40;;;;;;6091563;23;20445;-79
2023/02/17 12:27:52;;;;;;;2.87;2.67;;;15.10;51.00;;;;;;6066192;23;20381;-78
2023/02/17 12:30:45;;;;;;;2.97;2.80;;;15.20;50.80;;;;;;6092866;23;20420;-78
2023/02/17 12:33:37;;;;;;;2.80;2.60;;;15.40;50.80;;;;;;6067268;23;20409;-79
2023/02/17 12:36:08;;;;;;;2.67;2.58;;;15.90;50.80;;;;;;6066658;23;20381;-78
2023/02/17 12:38:48;;;;;;;2.95;2.75;;;16.00;49.70;;;;;;6093190;23;20373;-78
2023/02/17 12:41:25;;;;;;;2.95;2.75;;;15.80;49.30;;;;;;6067082;23;20392;-78
2023/02/17 12:44:00;;;;;;;2.50;2.40;;;15.80;49.80;;;;;;6066708;23;20472;-78
2023/02/17 12:46:46;;;;;;;2.55;2.45;;;15.30;50.50;;;;;;6067723;23;20385;-79
2023/02/17 12:49:29;;;;;;;2.67;2.58;;;15.50;50.50;;;;;;6066614;23;20365;-78
2023/02/17 12:52:14;;;;;;;2.60;2.50;;;15.00;50.80;;;;;;6066426;23;20419;-78
2023/02/17 12:55:03;;;;;;;2.65;2.50;;;15.40;51.30;;;;;;6092726;23;20413;-78
2023/02/17 12:57:39;;;;;;;3.03;2.83;;;15.70;49.90;;;;;;6092558;23;20369;-79
2023/02/17 13:00:22;;;;;;;3.13;2.93;;;15.80;49.30;;;;;;6091293;23;20468;-78
2023/02/17 13:02:49;;;;;;;3.10;2.90;;;15.90;49.40;;;;;;6062167;23;20371;-77
2023/02/17 13:05:39;;;;;;;2.85;2.75;;;15.60;49.50;;;;;;6063293;23;20383;-78
2023/02/17 13:08:22;;;;;;;2.83;2.70;;;15.40;50.40;;;;;;6062722;23;20435;-78
2023/02/17 13:11:07;;;;;;;4.10;3.80;;;15.40;50.80;;;;;;6063385;23;21256;-77
2023/02/17 13:13:34;;;;;;;2.72;2.53;;;15.40;50.80;;;;;;6063136;23;20427;-78
2023/02/17 13:16:07;;;;;;;2.60;2.50;;;15.30;51.00;;;;;;6062376;23;20383;-77
2023/02/17 13:18:37;;;;;;;2.97;2.80;;;15.40;51.30;;;;;;6062385;23;20402;-78
2023/02/17 13:21:31;;;;;;;2.75;2.60;;;15.80;50.90;;;;;;6063065;23;20450;-77